Crestview, FL (32539)

10:48 PM CDT on September 27, 2016 (GMT -0500)
Patton Street | | Change Station

Elev 249 ft 30.77 °N, 86.56 °W | Updated 14 seconds ago

Clear
Clear
73.5 °F
Feels Like 72 °F
N
0.0
Wind Variable Wind from South

Today
High -- | Low -- °F
--% Chance of Precip.
Yesterday
High -- | Low -- °F
Precip. -- in
Pressure 29.95 in
Visibility 9.0 miles
Clouds Clear
Heat Index 72 °F
Dew Point 69 °F
Humidity 86%
Rainfall 0.00 in
Snow Depth Not available.
6:37 AM 6:35 PM
Waning Crescent, 8% visible
METAR KCEW 280253Z AUTO 00000KT 9SM CLR 23/22 A2996 RMK AO2 SLP142 T02280217 51014
Pressure 29.95 in
Visibility 9.0 miles
Clouds Clear
Heat Index 72 °F
Dew Point 69 °F
Humidity 86%
Rainfall 0.00 in
Snow Depth Not available.
6:37 AM 6:35 PM
Waning Crescent, 8% visible
METAR KCEW 280253Z AUTO 00000KT 9SM CLR 23/22 A2996 RMK AO2 SLP142 T02280217 51014

10-Day Weather Forecast

Almanac

Astronomy

Sep. 27, 2016 Rise Set
Actual Time
Civil Twilight
Nautical Twilight
Astronomical Twilight
Moon
Length of Visible Light
Length of Day
Tomorrow will be .
, % of the Moon is Illuminated

Today's Extremes

State Highs State Lows

Community

WunderPhotos

Upload Photos

1,942,203 photos uploaded!

WunderBlog® & News

Nearby

Air Quality

  Air Quality AQ Index Pollutant
Not available.

Snow Depth

Station Depth Elevation

Earthquake Activity

City Distance Mag. Time & Date
Minimum magnitude displayed is 2.5.

Coastal Water Temperatures

Place Temperature

Stations

Nearby Weather Stations

Station Location Temp. Windchill Dew Point Humidity Wind Precip. Elev Updated Type
                   

Watches & Warnings

There are currently no watches in effect.